General Mitchell International Airport
KMKE : now visible

Airfield :











YOU CAN JOIN US ON...

 
LOGIN :

Register | Disclaimer

   EN    FR    IT 

 









Legend :    VFR   Marginal VFR   IFR   Intensive IFR   Very Intensive IFR
Visi :
Ceiling :
>= 8 km
>= 3000ft
5 to 8 km
1000 to 3000 ft
1500m to 5 km
500 to 1000 ft
800 to 1500m
200 to 500 ft
< 800m
< 200 ft
Symbols :   Thunderstorms  Fog  Heavy snow  Heavy precipitations  Wind > 20 kt






- Airport Elevation : 723 ft
- IATA code : MKE


KMKE - General Mitchell International

CURRENT METAR :
  • 180552Z 01008KT 10SM -RA FEW050 SCT100 OVC140 22/17 A2981 RMK AO2 RAB0454 TSB02E42 SLP089 P0000 60000 T02220167 10294 20222 403000128 53008

EXPIRED METARs :
  • 180548Z 35008KT 10SM -RA SCT050 BKN110 OVC140 22/17 A2981 RMK AO2 RAB0454 TSB02E42 P0000
  • 180508Z 36010KT 10SM -TSRA SCT048CB SCT090 BKN110 OVC140 26/16 A2981 RMK AO2 RAB0454 TSB02 PRESRR OCNL LTGICCC NW TS NW MOV E P0000 T02560156
  • 180452Z 00000KT 10SM SCT100 OVC140 28/14 A2977 RMK AO2 RAB0359E24 SLP076 OCNL LTG DSNT NW-N CB DSNT NW-N P0000 T02830144
  • 180352Z 21008G17KT 10SM FEW110 OVC150 29/14 A2979 RMK AO2 TSE0255 SLP080 T02890139

TAF KMKE
Valid from the 18 at 06:00 until the 19 at 12:00 UTC


180532Z 1806/1912 21006KT 6SM -SHRA BR VCTS OVC080CB
FM180700 20008KT 6SM -TSRA BR OVC080CB
TEMPO 1807/1811 2SM TSRA BR OVC050CB
FM181100 25007KT P6SM BKN050
FM181500 29008KT P6SM SCT050
FM190400 27006KT P6SM FEW250
KZAU FIR / North America



MET'MAP, your aeronautical weather chart ! - Copyright ORBIFLY December 2007 - Disclaimer

ORBIFLY MET'MAP TEAM :

Programming & Development : Alexandra Zaïnal
Concept & original design : Baudouin d'Aumeries
Assistance for programming : Marc-Olivier Méhu
Technical & hardware support : Manuel Goepfert

Contact : metmap@orbifly.com




SOURCES & CREDITS :

   NOAA       Earth
Advisory